sensor_id;sensor_type;location;lat;lon;timestamp;temperature;humidity
39601;DHT22;25297;44.758;11.310;2023-03-31T00:02:00;15.50;86.70
39601;DHT22;25297;44.758;11.310;2023-03-31T00:04:27;15.60;86.80
39601;DHT22;25297;44.758;11.310;2023-03-31T00:06:56;15.50;86.60
39601;DHT22;25297;44.758;11.310;2023-03-31T00:09:22;15.50;85.80
39601;DHT22;25297;44.758;11.310;2023-03-31T00:11:48;15.40;85.70
39601;DHT22;25297;44.758;11.310;2023-03-31T00:14:15;15.30;86.00
39601;DHT22;25297;44.758;11.310;2023-03-31T00:16:42;15.10;86.30
39601;DHT22;25297;44.758;11.310;2023-03-31T00:19:09;15.10;86.40
39601;DHT22;25297;44.758;11.310;2023-03-31T00:21:43;15.00;86.40
39601;DHT22;25297;44.758;11.310;2023-03-31T00:24:10;14.90;86.40
39601;DHT22;25297;44.758;11.310;2023-03-31T00:26:36;14.80;86.10
39601;DHT22;25297;44.758;11.310;2023-03-31T00:29:04;14.70;86.30
39601;DHT22;25297;44.758;11.310;2023-03-31T00:31:31;14.60;86.50
39601;DHT22;25297;44.758;11.310;2023-03-31T00:33:57;14.50;86.80
39601;DHT22;25297;44.758;11.310;2023-03-31T00:36:23;14.40;87.40
39601;DHT22;25297;44.758;11.310;2023-03-31T00:39:04;14.30;88.00
39601;DHT22;25297;44.758;11.310;2023-03-31T00:41:34;14.30;88.20
39601;DHT22;25297;44.758;11.310;2023-03-31T00:46:35;14.10;87.50
39601;DHT22;25297;44.758;11.310;2023-03-31T00:49:03;14.00;88.20
39601;DHT22;25297;44.758;11.310;2023-03-31T00:51:31;13.90;89.00
39601;DHT22;25297;44.758;11.310;2023-03-31T00:54:01;13.90;89.00
39601;DHT22;25297;44.758;11.310;2023-03-31T00:56:32;13.80;89.00
39601;DHT22;25297;44.758;11.310;2023-03-31T00:59:02;13.80;89.20
39601;DHT22;25297;44.758;11.310;2023-03-31T01:01:28;13.80;89.10
39601;DHT22;25297;44.758;11.310;2023-03-31T01:03:55;13.80;89.00
39601;DHT22;25297;44.758;11.310;2023-03-31T01:06:22;13.70;89.40
39601;DHT22;25297;44.758;11.310;2023-03-31T01:08:50;13.70;89.70
39601;DHT22;25297;44.758;11.310;2023-03-31T01:11:19;13.70;89.90
39601;DHT22;25297;44.758;11.310;2023-03-31T01:13:47;13.70;89.80
39601;DHT22;25297;44.758;11.310;2023-03-31T01:16:16;13.70;90.20
39601;DHT22;25297;44.758;11.310;2023-03-31T01:18:43;13.70;90.30
39601;DHT22;25297;44.758;11.310;2023-03-31T01:47:48;13.70;90.60
39601;DHT22;25297;44.758;11.310;2023-03-31T01:55:37;13.70;91.10
39601;DHT22;25297;44.758;11.310;2023-03-31T01:58:12;13.70;90.90
39601;DHT22;25297;44.758;11.310;2023-03-31T02:00:46;13.70;90.80
39601;DHT22;25297;44.758;11.310;2023-03-31T02:03:28;13.70;90.90
39601;DHT22;25297;44.758;11.310;2023-03-31T02:06:00;13.70;90.90
39601;DHT22;25297;44.758;11.310;2023-03-31T02:08:43;13.70;90.80
39601;DHT22;25297;44.758;11.310;2023-03-31T02:11:11;13.70;90.80
39601;DHT22;25297;44.758;11.310;2023-03-31T02:13:39;13.60;91.00
39601;DHT22;25297;44.758;11.310;2023-03-31T02:16:10;13.60;90.80
39601;DHT22;25297;44.758;11.310;2023-03-31T02:18:37;13.60;90.70
39601;DHT22;25297;44.758;11.310;2023-03-31T02:21:07;13.60;90.80
39601;DHT22;25297;44.758;11.310;2023-03-31T02:23:36;13.50;90.90
39601;DHT22;25297;44.758;11.310;2023-03-31T02:26:11;13.50;90.80
39601;DHT22;25297;44.758;11.310;2023-03-31T02:28:38;13.50;90.90
39601;DHT22;25297;44.758;11.310;2023-03-31T02:33:42;13.60;90.90
39601;DHT22;25297;44.758;11.310;2023-03-31T02:36:07;13.60;90.90
39601;DHT22;25297;44.758;11.310;2023-03-31T02:38:38;13.60;90.90
39601;DHT22;25297;44.758;11.310;2023-03-31T02:41:06;13.60;90.70
39601;DHT22;25297;44.758;11.310;2023-03-31T02:43:32;13.50;90.50
39601;DHT22;25297;44.758;11.310;2023-03-31T02:45:57;13.40;90.50
39601;DHT22;25297;44.758;11.310;2023-03-31T02:48:35;13.40;90.60
39601;DHT22;25297;44.758;11.310;2023-03-31T02:58:40;13.40;90.90
39601;DHT22;25297;44.758;11.310;2023-03-31T03:01:26;13.40;90.80
39601;DHT22;25297;44.758;11.310;2023-03-31T03:04:10;13.40;90.70
39601;DHT22;25297;44.758;11.310;2023-03-31T03:06:55;13.30;90.40
39601;DHT22;25297;44.758;11.310;2023-03-31T03:09:56;13.10;90.30
39601;DHT22;25297;44.758;11.310;2023-03-31T03:17:57;12.90;90.60
39601;DHT22;25297;44.758;11.310;2023-03-31T03:20:23;12.80;90.60
39601;DHT22;25297;44.758;11.310;2023-03-31T03:22:49;12.90;90.80
39601;DHT22;25297;44.758;11.310;2023-03-31T03:25:15;12.80;90.90
39601;DHT22;25297;44.758;11.310;2023-03-31T03:27:42;12.80;91.00
39601;DHT22;25297;44.758;11.310;2023-03-31T03:30:10;12.90;91.10
39601;DHT22;25297;44.758;11.310;2023-03-31T03:32:36;12.90;91.10
39601;DHT22;25297;44.758;11.310;2023-03-31T03:35:03;12.90;91.00
39601;DHT22;25297;44.758;11.310;2023-03-31T03:37:29;12.90;91.20
39601;DHT22;25297;44.758;11.310;2023-03-31T03:39:55;13.00;91.40
39601;DHT22;25297;44.758;11.310;2023-03-31T03:42:21;13.10;91.30
39601;DHT22;25297;44.758;11.310;2023-03-31T03:44:46;13.20;91.30
39601;DHT22;25297;44.758;11.310;2023-03-31T03:47:12;13.30;91.20
39601;DHT22;25297;44.758;11.310;2023-03-31T03:49:38;13.30;91.30
39601;DHT22;25297;44.758;11.310;2023-03-31T03:52:04;13.40;91.20
39601;DHT22;25297;44.758;11.310;2023-03-31T03:54:30;13.40;91.20
39601;DHT22;25297;44.758;11.310;2023-03-31T03:56:56;13.50;91.00
39601;DHT22;25297;44.758;11.310;2023-03-31T03:59:21;13.50;90.60
39601;DHT22;25297;44.758;11.310;2023-03-31T04:01:47;13.40;90.40
39601;DHT22;25297;44.758;11.310;2023-03-31T04:04:13;13.30;90.50
39601;DHT22;25297;44.758;11.310;2023-03-31T04:06:39;13.30;90.70
39601;DHT22;25297;44.758;11.310;2023-03-31T04:09:05;13.30;90.80
39601;DHT22;25297;44.758;11.310;2023-03-31T04:11:31;13.20;90.80
39601;DHT22;25297;44.758;11.310;2023-03-31T04:13:56;13.20;90.90
39601;DHT22;25297;44.758;11.310;2023-03-31T04:16:22;13.20;91.00
39601;DHT22;25297;44.758;11.310;2023-03-31T04:18:53;13.20;90.90
39601;DHT22;25297;44.758;11.310;2023-03-31T04:21:21;13.10;91.00
39601;DHT22;25297;44.758;11.310;2023-03-31T04:23:51;13.10;91.10
39601;DHT22;25297;44.758;11.310;2023-03-31T04:26:24;13.00;91.40
39601;DHT22;25297;44.758;11.310;2023-03-31T04:28:58;12.90;91.60
39601;DHT22;25297;44.758;11.310;2023-03-31T04:31:25;12.90;91.90
39601;DHT22;25297;44.758;11.310;2023-03-31T04:33:52;12.80;91.90
39601;DHT22;25297;44.758;11.310;2023-03-31T04:36:18;12.80;92.10
39601;DHT22;25297;44.758;11.310;2023-03-31T04:38:46;12.80;92.30
39601;DHT22;25297;44.758;11.310;2023-03-31T04:41:15;12.80;92.30
39601;DHT22;25297;44.758;11.310;2023-03-31T04:43:41;12.70;92.20
39601;DHT22;25297;44.758;11.310;2023-03-31T04:46:07;12.70;92.40
39601;DHT22;25297;44.758;11.310;2023-03-31T04:48:33;12.70;92.50
39601;DHT22;25297;44.758;11.310;2023-03-31T04:50:58;12.60;92.60
39601;DHT22;25297;44.758;11.310;2023-03-31T04:53:24;12.60;92.60
39601;DHT22;25297;44.758;11.310;2023-03-31T04:55:51;12.60;92.70
39601;DHT22;25297;44.758;11.310;2023-03-31T04:58:17;12.60;92.50
39601;DHT22;25297;44.758;11.310;2023-03-31T05:00:43;12.60;92.80
39601;DHT22;25297;44.758;11.310;2023-03-31T05:03:09;12.60;92.80
39601;DHT22;25297;44.758;11.310;2023-03-31T05:05:35;12.70;92.90
39601;DHT22;25297;44.758;11.310;2023-03-31T05:08:01;12.70;92.90
39601;DHT22;25297;44.758;11.310;2023-03-31T05:10:27;12.70;93.00
39601;DHT22;25297;44.758;11.310;2023-03-31T05:12:53;12.80;93.10
39601;DHT22;25297;44.758;11.310;2023-03-31T05:15:19;12.80;93.20
39601;DHT22;25297;44.758;11.310;2023-03-31T05:17:44;12.80;93.00
39601;DHT22;25297;44.758;11.310;2023-03-31T05:20:11;12.80;93.10
39601;DHT22;25297;44.758;11.310;2023-03-31T05:22:38;12.80;92.90
39601;DHT22;25297;44.758;11.310;2023-03-31T05:25:06;12.80;92.70
39601;DHT22;25297;44.758;11.310;2023-03-31T05:27:32;12.80;92.30
39601;DHT22;25297;44.758;11.310;2023-03-31T05:29:58;12.80;92.20
39601;DHT22;25297;44.758;11.310;2023-03-31T05:32:25;12.80;92.50
39601;DHT22;25297;44.758;11.310;2023-03-31T05:34:51;12.80;92.50
39601;DHT22;25297;44.758;11.310;2023-03-31T05:37:21;12.90;92.60
39601;DHT22;25297;44.758;11.310;2023-03-31T05:39:47;12.90;92.60
39601;DHT22;25297;44.758;11.310;2023-03-31T05:42:13;12.80;92.30
39601;DHT22;25297;44.758;11.310;2023-03-31T05:44:38;12.80;92.50
39601;DHT22;25297;44.758;11.310;2023-03-31T05:47:04;12.80;92.70
39601;DHT22;25297;44.758;11.310;2023-03-31T05:49:30;12.80;92.80
39601;DHT22;25297;44.758;11.310;2023-03-31T05:51:56;12.80;92.90
39601;DHT22;25297;44.758;11.310;2023-03-31T05:54:21;12.80;93.10
39601;DHT22;25297;44.758;11.310;2023-03-31T05:56:47;12.70;93.30
39601;DHT22;25297;44.758;11.310;2023-03-31T05:59:13;12.70;93.50
39601;DHT22;25297;44.758;11.310;2023-03-31T06:01:38;12.70;93.70
39601;DHT22;25297;44.758;11.310;2023-03-31T06:04:04;12.70;93.80
39601;DHT22;25297;44.758;11.310;2023-03-31T06:06:30;12.70;94.00
39601;DHT22;25297;44.758;11.310;2023-03-31T06:08:57;12.80;94.10
39601;DHT22;25297;44.758;11.310;2023-03-31T06:11:23;12.80;94.10
39601;DHT22;25297;44.758;11.310;2023-03-31T06:13:49;12.80;94.00
39601;DHT22;25297;44.758;11.310;2023-03-31T06:16:15;12.80;94.10
39601;DHT22;25297;44.758;11.310;2023-03-31T06:18:41;12.80;94.20
39601;DHT22;25297;44.758;11.310;2023-03-31T06:21:13;12.80;94.40
39601;DHT22;25297;44.758;11.310;2023-03-31T06:23:40;12.80;94.50
39601;DHT22;25297;44.758;11.310;2023-03-31T06:26:12;12.80;94.50
39601;DHT22;25297;44.758;11.310;2023-03-31T06:28:38;12.90;94.40
39601;DHT22;25297;44.758;11.310;2023-03-31T06:31:08;12.90;94.40
39601;DHT22;25297;44.758;11.310;2023-03-31T06:33:37;13.00;94.30
39601;DHT22;25297;44.758;11.310;2023-03-31T06:36:04;13.00;94.30
39601;DHT22;25297;44.758;11.310;2023-03-31T06:38:32;13.00;94.40
39601;DHT22;25297;44.758;11.310;2023-03-31T06:40:58;13.00;94.50
39601;DHT22;25297;44.758;11.310;2023-03-31T06:43:23;13.10;94.60
39601;DHT22;25297;44.758;11.310;2023-03-31T06:45:51;13.10;94.40
39601;DHT22;25297;44.758;11.310;2023-03-31T06:48:17;13.20;94.50
39601;DHT22;25297;44.758;11.310;2023-03-31T06:50:43;13.20;94.50
39601;DHT22;25297;44.758;11.310;2023-03-31T06:53:09;13.30;94.50
39601;DHT22;25297;44.758;11.310;2023-03-31T06:55:35;13.30;94.60
39601;DHT22;25297;44.758;11.310;2023-03-31T06:58:01;13.30;94.60
39601;DHT22;25297;44.758;11.310;2023-03-31T07:00:27;13.40;94.50
39601;DHT22;25297;44.758;11.310;2023-03-31T07:02:53;13.40;94.70
39601;DHT22;25297;44.758;11.310;2023-03-31T07:05:19;13.50;94.60
39601;DHT22;25297;44.758;11.310;2023-03-31T07:07:52;13.50;94.60
39601;DHT22;25297;44.758;11.310;2023-03-31T07:10:17;13.60;94.60
39601;DHT22;25297;44.758;11.310;2023-03-31T07:12:43;13.70;94.50
39601;DHT22;25297;44.758;11.310;2023-03-31T07:15:09;13.70;94.50
39601;DHT22;25297;44.758;11.310;2023-03-31T07:17:35;13.80;94.70
39601;DHT22;25297;44.758;11.310;2023-03-31T07:20:03;13.90;94.40
39601;DHT22;25297;44.758;11.310;2023-03-31T07:22:34;14.00;94.10
39601;DHT22;25297;44.758;11.310;2023-03-31T07:24:59;14.10;93.90
39601;DHT22;25297;44.758;11.310;2023-03-31T07:27:25;14.20;93.70
39601;DHT22;25297;44.758;11.310;2023-03-31T07:29:51;14.30;93.60
39601;DHT22;25297;44.758;11.310;2023-03-31T07:32:16;14.40;93.30
39601;DHT22;25297;44.758;11.310;2023-03-31T07:34:43;14.50;93.10
39601;DHT22;25297;44.758;11.310;2023-03-31T07:37:08;14.60;92.90
39601;DHT22;25297;44.758;11.310;2023-03-31T07:39:34;14.60;92.90
39601;DHT22;25297;44.758;11.310;2023-03-31T07:42:01;14.70;92.90
39601;DHT22;25297;44.758;11.310;2023-03-31T07:44:27;14.80;92.90
39601;DHT22;25297;44.758;11.310;2023-03-31T07:46:52;14.90;92.90
39601;DHT22;25297;44.758;11.310;2023-03-31T07:49:18;14.90;93.00
39601;DHT22;25297;44.758;11.310;2023-03-31T07:51:43;15.00;93.30
39601;DHT22;25297;44.758;11.310;2023-03-31T07:54:09;15.10;93.20
39601;DHT22;25297;44.758;11.310;2023-03-31T07:56:35;15.10;93.10
39601;DHT22;25297;44.758;11.310;2023-03-31T07:59:00;15.20;92.90
39601;DHT22;25297;44.758;11.310;2023-03-31T08:01:26;15.30;92.70
39601;DHT22;25297;44.758;11.310;2023-03-31T08:03:53;15.30;92.40
39601;DHT22;25297;44.758;11.310;2023-03-31T08:06:23;15.40;92.50
39601;DHT22;25297;44.758;11.310;2023-03-31T08:08:50;15.50;92.20
39601;DHT22;25297;44.758;11.310;2023-03-31T08:11:16;15.50;91.90
39601;DHT22;25297;44.758;11.310;2023-03-31T08:13:42;15.60;91.70
39601;DHT22;25297;44.758;11.310;2023-03-31T08:16:08;15.70;91.40
39601;DHT22;25297;44.758;11.310;2023-03-31T08:18:34;15.70;91.00
39601;DHT22;25297;44.758;11.310;2023-03-31T08:21:00;15.80;91.10
39601;DHT22;25297;44.758;11.310;2023-03-31T08:23:25;15.90;91.20
39601;DHT22;25297;44.758;11.310;2023-03-31T08:25:51;15.90;91.30
39601;DHT22;25297;44.758;11.310;2023-03-31T08:28:17;16.00;91.20
39601;DHT22;25297;44.758;11.310;2023-03-31T08:30:43;16.00;91.20
39601;DHT22;25297;44.758;11.310;2023-03-31T08:33:08;16.10;91.40
39601;DHT22;25297;44.758;11.310;2023-03-31T08:35:37;16.10;91.30
39601;DHT22;25297;44.758;11.310;2023-03-31T08:38:03;16.20;91.40
39601;DHT22;25297;44.758;11.310;2023-03-31T08:40:30;16.20;91.10
39601;DHT22;25297;44.758;11.310;2023-03-31T08:43:05;16.30;90.90
39601;DHT22;25297;44.758;11.310;2023-03-31T08:45:34;16.30;90.70
39601;DHT22;25297;44.758;11.310;2023-03-31T08:51:21;16.50;90.50
39601;DHT22;25297;44.758;11.310;2023-03-31T08:54:02;16.50;90.50
39601;DHT22;25297;44.758;11.310;2023-03-31T08:56:31;16.60;90.70
39601;DHT22;25297;44.758;11.310;2023-03-31T08:58:57;16.60;90.80
39601;DHT22;25297;44.758;11.310;2023-03-31T09:01:43;16.70;90.90
39601;DHT22;25297;44.758;11.310;2023-03-31T09:12:56;16.90;90.90
39601;DHT22;25297;44.758;11.310;2023-03-31T09:16:01;17.00;91.20
39601;DHT22;25297;44.758;11.310;2023-03-31T09:18:34;17.00;91.00
39601;DHT22;25297;44.758;11.310;2023-03-31T09:23:39;17.10;90.60
39601;DHT22;25297;44.758;11.310;2023-03-31T09:26:31;17.20;90.50
39601;DHT22;25297;44.758;11.310;2023-03-31T09:28:59;17.30;90.30
39601;DHT22;25297;44.758;11.310;2023-03-31T09:31:27;17.30;90.00
39601;DHT22;25297;44.758;11.310;2023-03-31T09:33:58;17.30;90.10
39601;DHT22;25297;44.758;11.310;2023-03-31T09:36:25;17.40;90.10
39601;DHT22;25297;44.758;11.310;2023-03-31T09:38:51;17.40;90.20
39601;DHT22;25297;44.758;11.310;2023-03-31T09:41:17;17.50;90.70
39601;DHT22;25297;44.758;11.310;2023-03-31T09:43:44;17.60;90.90
39601;DHT22;25297;44.758;11.310;2023-03-31T09:48:47;17.70;90.50
39601;DHT22;25297;44.758;11.310;2023-03-31T09:51:18;17.80;90.30
39601;DHT22;25297;44.758;11.310;2023-03-31T09:54:00;17.90;90.20
39601;DHT22;25297;44.758;11.310;2023-03-31T09:56:43;17.90;90.00
39601;DHT22;25297;44.758;11.310;2023-03-31T09:59:19;18.00;89.30
39601;DHT22;25297;44.758;11.310;2023-03-31T10:01:46;18.00;89.80
39601;DHT22;25297;44.758;11.310;2023-03-31T10:04:32;18.10;89.60
39601;DHT22;25297;44.758;11.310;2023-03-31T10:07:00;18.20;88.40
39601;DHT22;25297;44.758;11.310;2023-03-31T10:09:32;18.20;87.90
39601;DHT22;25297;44.758;11.310;2023-03-31T10:17:05;18.40;86.20
39601;DHT22;25297;44.758;11.310;2023-03-31T10:19:35;18.50;84.80
39601;DHT22;25297;44.758;11.310;2023-03-31T10:22:14;18.50;85.20
39601;DHT22;25297;44.758;11.310;2023-03-31T10:24:45;18.50;85.10
39601;DHT22;25297;44.758;11.310;2023-03-31T10:29:46;18.60;83.40
39601;DHT22;25297;44.758;11.310;2023-03-31T10:32:39;18.60;81.50
39601;DHT22;25297;44.758;11.310;2023-03-31T10:37:47;18.70;80.80
39601;DHT22;25297;44.758;11.310;2023-03-31T10:40:22;18.80;81.70
39601;DHT22;25297;44.758;11.310;2023-03-31T10:43:03;18.80;81.90
39601;DHT22;25297;44.758;11.310;2023-03-31T10:45:51;18.80;79.90
39601;DHT22;25297;44.758;11.310;2023-03-31T10:50:49;18.90;79.60
39601;DHT22;25297;44.758;11.310;2023-03-31T10:53:16;18.90;79.00
39601;DHT22;25297;44.758;11.310;2023-03-31T10:55:48;18.90;78.50
39601;DHT22;25297;44.758;11.310;2023-03-31T10:58:20;18.90;78.50
39601;DHT22;25297;44.758;11.310;2023-03-31T11:06:19;19.00;77.50
39601;DHT22;25297;44.758;11.310;2023-03-31T11:11:46;19.00;77.90
39601;DHT22;25297;44.758;11.310;2023-03-31T11:17:15;19.20;77.90
39601;DHT22;25297;44.758;11.310;2023-03-31T11:22:54;19.30;77.70
39601;DHT22;25297;44.758;11.310;2023-03-31T11:25:38;19.40;77.90
39601;DHT22;25297;44.758;11.310;2023-03-31T11:28:23;19.40;78.10
39601;DHT22;25297;44.758;11.310;2023-03-31T11:33:35;19.60;75.50
39601;DHT22;25297;44.758;11.310;2023-03-31T11:41:43;19.70;75.40
39601;DHT22;25297;44.758;11.310;2023-03-31T11:44:12;19.70;75.20
39601;DHT22;25297;44.758;11.310;2023-03-31T11:46:43;19.70;74.10
39601;DHT22;25297;44.758;11.310;2023-03-31T11:49:37;19.70;73.50
39601;DHT22;25297;44.758;11.310;2023-03-31T11:52:18;19.70;73.20
39601;DHT22;25297;44.758;11.310;2023-03-31T11:54:53;19.70;73.20
39601;DHT22;25297;44.758;11.310;2023-03-31T11:57:37;19.80;73.50
39601;DHT22;25297;44.758;11.310;2023-03-31T12:01:07;19.80;72.80
39601;DHT22;25297;44.758;11.310;2023-03-31T12:03:23;19.80;72.10
39601;DHT22;25297;44.758;11.310;2023-03-31T12:06:04;19.70;72.10
39601;DHT22;25297;44.758;11.310;2023-03-31T12:08:35;19.70;70.50
39601;DHT22;25297;44.758;11.310;2023-03-31T12:11:12;19.70;70.10
39601;DHT22;25297;44.758;11.310;2023-03-31T12:13:57;19.70;70.70
39601;DHT22;25297;44.758;11.310;2023-03-31T12:16:42;19.70;71.50
39601;DHT22;25297;44.758;11.310;2023-03-31T12:24:37;19.80;72.50
39601;DHT22;25297;44.758;11.310;2023-03-31T12:29:40;19.80;72.60
39601;DHT22;25297;44.758;11.310;2023-03-31T12:32:15;19.80;72.80
39601;DHT22;25297;44.758;11.310;2023-03-31T12:34:55;19.80;72.50
39601;DHT22;25297;44.758;11.310;2023-03-31T12:43:23;19.90;71.50
39601;DHT22;25297;44.758;11.310;2023-03-31T12:59:39;20.40;71.20
39601;DHT22;25297;44.758;11.310;2023-03-31T13:04:35;20.40;67.80
39601;DHT22;25297;44.758;11.310;2023-03-31T13:07:52;20.40;67.40
39601;DHT22;25297;44.758;11.310;2023-03-31T13:09:57;20.40;68.80
39601;DHT22;25297;44.758;11.310;2023-03-31T13:12:25;20.50;70.60
39601;DHT22;25297;44.758;11.310;2023-03-31T13:14:54;20.50;71.30
39601;DHT22;25297;44.758;11.310;2023-03-31T13:17:27;20.60;71.20
39601;DHT22;25297;44.758;11.310;2023-03-31T13:19:54;20.60;71.30
39601;DHT22;25297;44.758;11.310;2023-03-31T13:22:34;20.70;71.40
39601;DHT22;25297;44.758;11.310;2023-03-31T13:28:13;20.80;70.10
39601;DHT22;25297;44.758;11.310;2023-03-31T13:33:12;20.80;71.50
39601;DHT22;25297;44.758;11.310;2023-03-31T13:35:40;20.90;70.70
39601;DHT22;25297;44.758;11.310;2023-03-31T13:38:13;20.90;70.20
39601;DHT22;25297;44.758;11.310;2023-03-31T14:00:20;20.80;69.90
39601;DHT22;25297;44.758;11.310;2023-03-31T14:10:41;20.60;71.40
39601;DHT22;25297;44.758;11.310;2023-03-31T14:13:15;20.60;71.30
39601;DHT22;25297;44.758;11.310;2023-03-31T14:15:51;20.50;71.70
39601;DHT22;25297;44.758;11.310;2023-03-31T14:18:26;20.50;72.20
39601;DHT22;25297;44.758;11.310;2023-03-31T14:23:57;20.40;72.20
39601;DHT22;25297;44.758;11.310;2023-03-31T14:26:41;20.40;72.90
39601;DHT22;25297;44.758;11.310;2023-03-31T14:37:14;20.40;73.10
39601;DHT22;25297;44.758;11.310;2023-03-31T14:39:50;20.40;73.40
39601;DHT22;25297;44.758;11.310;2023-03-31T14:42:20;20.40;72.90
39601;DHT22;25297;44.758;11.310;2023-03-31T14:44:46;20.40;72.50
39601;DHT22;25297;44.758;11.310;2023-03-31T14:47:23;20.50;73.00
39601;DHT22;25297;44.758;11.310;2023-03-31T14:50:04;20.50;73.50
39601;DHT22;25297;44.758;11.310;2023-03-31T14:52:34;20.50;73.60
39601;DHT22;25297;44.758;11.310;2023-03-31T14:55:00;20.50;73.70
39601;DHT22;25297;44.758;11.310;2023-03-31T14:57:35;20.40;73.90
39601;DHT22;25297;44.758;11.310;2023-03-31T15:00:04;20.50;74.40
39601;DHT22;25297;44.758;11.310;2023-03-31T15:02:36;20.50;74.70
39601;DHT22;25297;44.758;11.310;2023-03-31T15:05:04;20.50;75.40
39601;DHT22;25297;44.758;11.310;2023-03-31T15:07:32;20.50;75.20
39601;DHT22;25297;44.758;11.310;2023-03-31T15:09:58;20.50;74.70
39601;DHT22;25297;44.758;11.310;2023-03-31T15:12:25;20.50;73.90
39601;DHT22;25297;44.758;11.310;2023-03-31T15:15:11;20.50;73.80
39601;DHT22;25297;44.758;11.310;2023-03-31T15:17:40;20.50;73.80
39601;DHT22;25297;44.758;11.310;2023-03-31T15:20:31;20.50;74.30
39601;DHT22;25297;44.758;11.310;2023-03-31T15:22:59;20.50;74.50
39601;DHT22;25297;44.758;11.310;2023-03-31T15:25:35;20.40;73.60
39601;DHT22;25297;44.758;11.310;2023-03-31T15:28:06;20.40;73.30
39601;DHT22;25297;44.758;11.310;2023-03-31T15:30:34;20.40;72.90
39601;DHT22;25297;44.758;11.310;2023-03-31T15:33:00;20.40;73.20
39601;DHT22;25297;44.758;11.310;2023-03-31T15:35:30;20.30;73.50
39601;DHT22;25297;44.758;11.310;2023-03-31T15:37:57;20.30;73.30
39601;DHT22;25297;44.758;11.310;2023-03-31T15:40:25;20.30;73.60
39601;DHT22;25297;44.758;11.310;2023-03-31T15:43:03;20.30;73.80
39601;DHT22;25297;44.758;11.310;2023-03-31T15:45:50;20.30;73.80
39601;DHT22;25297;44.758;11.310;2023-03-31T15:48:36;20.20;73.90
39601;DHT22;25297;44.758;11.310;2023-03-31T15:53:47;20.20;73.80
39601;DHT22;25297;44.758;11.310;2023-03-31T15:59:00;20.20;73.40
39601;DHT22;25297;44.758;11.310;2023-03-31T16:01:32;20.20;73.70
39601;DHT22;25297;44.758;11.310;2023-03-31T16:04:01;20.20;73.70
39601;DHT22;25297;44.758;11.310;2023-03-31T16:06:53;20.10;73.70
39601;DHT22;25297;44.758;11.310;2023-03-31T16:09:38;20.10;74.10
39601;DHT22;25297;44.758;11.310;2023-03-31T16:12:22;20.10;73.90
39601;DHT22;25297;44.758;11.310;2023-03-31T16:17:39;20.10;73.80
39601;DHT22;25297;44.758;11.310;2023-03-31T16:20:15;20.10;74.10
39601;DHT22;25297;44.758;11.310;2023-03-31T16:22:45;20.10;74.00
39601;DHT22;25297;44.758;11.310;2023-03-31T16:25:14;20.00;73.90
39601;DHT22;25297;44.758;11.310;2023-03-31T16:27:45;20.00;74.20
39601;DHT22;25297;44.758;11.310;2023-03-31T16:30:17;20.10;74.20
39601;DHT22;25297;44.758;11.310;2023-03-31T16:33:02;20.00;74.20
39601;DHT22;25297;44.758;11.310;2023-03-31T16:35:30;20.00;74.00
39601;DHT22;25297;44.758;11.310;2023-03-31T16:37:56;20.00;74.10
39601;DHT22;25297;44.758;11.310;2023-03-31T16:40:22;19.90;73.90
39601;DHT22;25297;44.758;11.310;2023-03-31T16:42:48;19.90;74.40
39601;DHT22;25297;44.758;11.310;2023-03-31T16:45:13;19.90;74.90
39601;DHT22;25297;44.758;11.310;2023-03-31T16:47:39;19.90;75.30
39601;DHT22;25297;44.758;11.310;2023-03-31T16:50:05;19.80;75.50
39601;DHT22;25297;44.758;11.310;2023-03-31T16:52:31;19.90;75.70
39601;DHT22;25297;44.758;11.310;2023-03-31T16:54:57;19.90;75.40
39601;DHT22;25297;44.758;11.310;2023-03-31T16:57:22;19.80;75.20
39601;DHT22;25297;44.758;11.310;2023-03-31T16:59:48;19.80;75.00
39601;DHT22;25297;44.758;11.310;2023-03-31T17:02:14;19.80;75.20
39601;DHT22;25297;44.758;11.310;2023-03-31T17:04:40;19.70;75.40
39601;DHT22;25297;44.758;11.310;2023-03-31T17:07:07;19.70;75.70
39601;DHT22;25297;44.758;11.310;2023-03-31T17:09:32;19.70;76.10
39601;DHT22;25297;44.758;11.310;2023-03-31T17:11:58;19.70;76.80
39601;DHT22;25297;44.758;11.310;2023-03-31T17:14:23;19.70;77.30
39601;DHT22;25297;44.758;11.310;2023-03-31T17:16:49;19.70;78.50
39601;DHT22;25297;44.758;11.310;2023-03-31T17:19:15;19.70;78.90
39601;DHT22;25297;44.758;11.310;2023-03-31T17:21:42;19.70;79.60
39601;DHT22;25297;44.758;11.310;2023-03-31T17:24:08;19.60;79.80
39601;DHT22;25297;44.758;11.310;2023-03-31T17:26:33;19.60;79.90
39601;DHT22;25297;44.758;11.310;2023-03-31T17:29:01;19.60;80.00
39601;DHT22;25297;44.758;11.310;2023-03-31T17:31:27;19.60;80.20
39601;DHT22;25297;44.758;11.310;2023-03-31T17:33:55;19.50;80.20
39601;DHT22;25297;44.758;11.310;2023-03-31T17:36:21;19.50;80.40
39601;DHT22;25297;44.758;11.310;2023-03-31T17:38:47;19.50;80.60
39601;DHT22;25297;44.758;11.310;2023-03-31T17:41:12;19.50;80.90
39601;DHT22;25297;44.758;11.310;2023-03-31T17:43:38;19.40;81.00
39601;DHT22;25297;44.758;11.310;2023-03-31T17:46:06;19.40;81.20
39601;DHT22;25297;44.758;11.310;2023-03-31T17:48:33;19.30;81.30
39601;DHT22;25297;44.758;11.310;2023-03-31T17:51:06;19.30;81.60
39601;DHT22;25297;44.758;11.310;2023-03-31T17:53:34;19.30;82.00
39601;DHT22;25297;44.758;11.310;2023-03-31T17:56:01;19.30;82.20
39601;DHT22;25297;44.758;11.310;2023-03-31T17:58:28;19.30;82.80
39601;DHT22;25297;44.758;11.310;2023-03-31T18:00:53;19.20;82.60
39601;DHT22;25297;44.758;11.310;2023-03-31T18:03:19;19.20;82.90
39601;DHT22;25297;44.758;11.310;2023-03-31T18:05:45;19.20;82.80
39601;DHT22;25297;44.758;11.310;2023-03-31T18:08:11;19.20;83.40
39601;DHT22;25297;44.758;11.310;2023-03-31T18:10:37;19.20;83.30
39601;DHT22;25297;44.758;11.310;2023-03-31T18:13:02;19.20;83.00
39601;DHT22;25297;44.758;11.310;2023-03-31T18:15:28;19.10;82.80
39601;DHT22;25297;44.758;11.310;2023-03-31T18:17:54;19.10;82.80
39601;DHT22;25297;44.758;11.310;2023-03-31T18:20:20;19.10;82.60
39601;DHT22;25297;44.758;11.310;2023-03-31T18:22:47;19.00;82.40
39601;DHT22;25297;44.758;11.310;2023-03-31T18:25:14;19.00;82.60
39601;DHT22;25297;44.758;11.310;2023-03-31T18:27:40;19.00;82.70
39601;DHT22;25297;44.758;11.310;2023-03-31T18:30:07;18.90;82.90
39601;DHT22;25297;44.758;11.310;2023-03-31T18:32:33;18.90;82.90
39601;DHT22;25297;44.758;11.310;2023-03-31T18:34:59;18.90;83.30
39601;DHT22;25297;44.758;11.310;2023-03-31T18:37:25;18.80;83.60